createdAt,value
2023-03-11T03:17:37.897Z,527.00
2023-03-11T06:43:29.040Z,559.00
2023-03-11T07:50:28.455Z,539.00
2023-03-11T08:18:28.197Z,536.00
2023-03-11T08:54:27.866Z,525.00
2023-03-11T08:57:27.838Z,528.00
2023-03-11T08:58:27.837Z,537.00
2023-03-11T08:59:27.824Z,532.00
2023-03-11T09:00:27.808Z,524.00
2023-03-11T09:01:27.805Z,521.00
2023-03-11T09:02:27.862Z,525.00
2023-03-11T09:03:27.789Z,521.00
2023-03-11T09:04:27.777Z,522.00
2023-03-11T09:05:27.811Z,529.00
2023-03-11T09:06:27.758Z,524.00
2023-03-11T09:07:27.751Z,533.00
2023-03-11T09:09:27.733Z,530.00
2023-03-11T09:10:27.720Z,520.00
2023-03-11T09:11:27.742Z,518.00
2023-03-11T09:12:27.709Z,522.00
2023-03-11T09:13:27.891Z,519.00
2023-03-11T09:14:27.683Z,528.00
2023-03-11T09:15:27.695Z,524.00
2023-03-11T09:16:27.717Z,519.00
2023-03-11T09:17:27.665Z,513.00
2023-03-11T09:19:27.639Z,520.00
2023-03-11T09:20:27.650Z,521.00
2023-03-11T09:21:27.647Z,520.00
2023-03-11T09:22:28.396Z,525.00
2023-03-11T09:23:27.601Z,517.00
2023-03-11T09:25:27.587Z,526.00
2023-03-11T09:26:27.581Z,513.00
2023-03-11T09:27:27.593Z,512.00
2023-03-11T09:28:27.564Z,520.00
2023-03-11T09:29:27.560Z,526.00
2023-03-11T09:30:27.550Z,520.00
2023-03-11T09:33:27.517Z,525.00
2023-03-11T09:34:27.516Z,520.00
2023-03-11T09:35:27.575Z,529.00
2023-03-11T09:36:27.491Z,530.00
2023-03-11T09:37:27.484Z,541.00
2023-03-11T09:38:27.473Z,532.00
2023-03-11T09:39:27.471Z,517.00
2023-03-11T09:40:27.465Z,518.00
2023-03-11T09:41:27.482Z,516.00
2023-03-11T09:43:27.455Z,521.00
2023-03-11T09:44:27.458Z,506.00
2023-03-11T09:45:27.415Z,511.00
2023-03-11T09:46:27.476Z,506.00
2023-03-11T09:48:27.390Z,519.00
2023-03-11T09:49:27.413Z,516.00
2023-03-11T09:50:27.377Z,512.00
2023-03-11T09:51:27.374Z,515.00
2023-03-11T09:52:27.371Z,515.00
2023-03-11T09:53:27.344Z,520.00
2023-03-11T09:54:27.333Z,530.00
2023-03-11T09:55:27.329Z,527.00
2023-03-11T09:56:27.318Z,528.00
2023-03-11T09:57:27.309Z,529.00
2023-03-11T09:58:27.307Z,518.00
2023-03-11T09:59:27.306Z,522.00
2023-03-11T10:00:27.281Z,516.00
2023-03-11T10:01:27.270Z,525.00
2023-03-11T10:02:27.397Z,519.00
2023-03-11T10:03:27.254Z,510.00
2023-03-11T10:05:27.247Z,527.00
2023-03-11T10:06:27.218Z,521.00
2023-03-11T10:07:27.211Z,521.00
2023-03-11T10:08:27.218Z,528.00
2023-03-11T10:09:27.200Z,529.00
2023-03-11T10:10:27.186Z,519.00
2023-03-11T10:11:27.175Z,523.00
2023-03-11T10:12:27.172Z,514.00
2023-03-11T10:13:27.161Z,523.00
2023-03-11T10:14:27.150Z,523.00
2023-03-11T10:15:27.165Z,514.00
2023-03-11T10:16:27.205Z,507.00
2023-03-11T10:17:27.777Z,509.00
2023-03-11T10:18:27.113Z,525.00
2023-03-11T10:19:27.114Z,523.00
2023-03-11T10:20:27.114Z,521.00
2023-03-11T10:21:27.088Z,517.00
2023-03-11T10:22:27.092Z,510.00
2023-03-11T10:23:27.068Z,524.00
2023-03-11T10:24:27.067Z,531.00
2023-03-11T10:25:27.914Z,519.00
2023-03-11T10:48:27.441Z,526.00
2023-03-11T13:48:25.251Z,559.00
2023-03-11T14:12:32.022Z,553.00
2023-03-11T15:10:27.516Z,549.00
2023-03-11T18:11:29.584Z,511.00
2023-03-11T18:38:29.592Z,516.00
2023-03-11T19:07:22.424Z,532.00
2023-03-11T19:14:22.364Z,530.00
2023-03-11T19:15:22.346Z,526.00
2023-03-11T19:16:22.470Z,521.00
2023-03-11T19:17:22.330Z,526.00
2023-03-11T19:18:22.332Z,530.00
2023-03-11T19:19:22.341Z,527.00
2023-03-11T19:20:22.309Z,517.00
2023-03-11T19:21:22.298Z,529.00
2023-03-11T19:22:23.120Z,520.00
2023-03-11T19:23:22.278Z,519.00
2023-03-11T19:24:22.280Z,520.00
2023-03-11T19:25:22.261Z,509.00
2023-03-11T19:26:30.785Z,510.00
2023-03-11T19:27:22.250Z,511.00
2023-03-11T19:28:22.236Z,513.00
2023-03-11T19:29:22.229Z,517.00
2023-03-11T19:30:22.216Z,522.00
2023-03-11T19:31:22.293Z,525.00
2023-03-11T19:32:22.254Z,526.00
2023-03-11T19:33:22.194Z,515.00
2023-03-11T19:34:22.189Z,518.00
2023-03-11T19:35:22.225Z,523.00
2023-03-11T19:36:22.170Z,526.00
2023-03-11T19:38:22.160Z,514.00
2023-03-11T19:39:22.136Z,516.00
2023-03-11T19:40:22.134Z,519.00
2023-03-11T19:41:22.136Z,508.00
2023-03-11T19:42:22.135Z,505.00
2023-03-11T19:43:22.101Z,515.00
2023-03-11T19:44:22.125Z,518.00
2023-03-11T19:45:22.110Z,526.00
2023-03-11T19:46:22.245Z,523.00
2023-03-11T19:47:22.065Z,524.00
2023-03-11T19:48:22.051Z,528.00
2023-03-11T19:49:22.043Z,518.00
2023-03-11T19:50:22.078Z,525.00
2023-03-11T19:51:22.054Z,532.00
2023-03-11T19:52:22.035Z,526.00
2023-03-11T19:53:22.017Z,519.00
2023-03-11T19:54:22.016Z,516.00
2023-03-11T19:55:22.093Z,510.00
2023-03-11T19:56:21.981Z,514.00
2023-03-11T19:57:21.989Z,512.00
2023-03-11T19:58:21.968Z,521.00
2023-03-11T19:59:22.008Z,523.00
2023-03-11T20:00:21.989Z,518.00
2023-03-11T20:01:21.956Z,514.00
2023-03-11T20:02:22.020Z,520.00
2023-03-11T20:03:21.967Z,520.00
2023-03-11T20:04:21.978Z,520.00
2023-03-11T20:05:21.903Z,522.00
2023-03-11T20:06:21.972Z,526.00
2023-03-11T20:07:22.017Z,525.00
2023-03-11T20:08:21.915Z,528.00
2023-03-11T20:09:21.875Z,528.00
2023-03-11T20:10:21.900Z,529.00
2023-03-11T20:11:21.842Z,528.00
2023-03-11T20:12:21.834Z,530.00
2023-03-11T20:13:21.858Z,528.00
2023-03-11T20:14:21.825Z,533.00
2023-03-11T20:15:21.871Z,532.00
2023-03-11T20:16:21.886Z,534.00
2023-03-11T20:17:21.865Z,542.00
2023-03-11T20:18:21.822Z,547.00
2023-03-11T20:19:21.849Z,535.00
2023-03-11T20:20:21.846Z,544.00
2023-03-11T20:21:21.752Z,547.00
2023-03-11T20:22:21.771Z,540.00
2023-03-11T20:23:21.765Z,552.00
2023-03-11T20:24:21.756Z,551.00
2023-03-11T20:25:21.744Z,546.00
2023-03-11T20:26:21.778Z,550.00
2023-03-11T20:27:21.793Z,547.00
2023-03-11T20:28:21.749Z,546.00
2023-03-11T20:29:21.777Z,554.00
2023-03-11T20:30:21.736Z,552.00
2023-03-11T20:31:21.764Z,549.00
2023-03-11T20:32:21.716Z,546.00
2023-03-11T20:33:21.652Z,550.00
2023-03-11T20:34:21.636Z,555.00
2023-03-11T20:35:21.672Z,550.00
2023-03-11T20:36:21.719Z,558.00
2023-03-11T20:37:21.625Z,564.00
2023-03-11T20:38:21.689Z,554.00
2023-03-11T20:39:21.634Z,556.00
2023-03-11T20:40:21.581Z,559.00
2023-03-11T20:41:21.628Z,548.00
2023-03-11T20:42:21.598Z,556.00
2023-03-11T20:43:21.624Z,556.00
2023-03-11T20:44:21.583Z,557.00
2023-03-11T20:45:22.044Z,555.00
2023-03-11T20:46:21.564Z,562.00
2023-03-11T20:47:21.725Z,562.00
2023-03-11T20:48:21.563Z,563.00
2023-03-11T20:49:21.517Z,560.00
2023-03-11T20:50:21.636Z,568.00
2023-03-11T20:51:21.494Z,564.00
2023-03-11T20:52:22.143Z,563.00
2023-03-11T20:53:21.477Z,567.00
2023-03-11T20:54:21.547Z,569.00
2023-03-11T20:55:21.482Z,564.00
2023-03-11T20:56:21.442Z,565.00
2023-03-11T20:57:21.580Z,567.00
2023-03-11T20:58:21.502Z,568.00
2023-03-11T20:59:21.457Z,576.00
2023-03-11T21:00:21.518Z,571.00
2023-03-11T21:01:21.527Z,568.00
2023-03-11T21:02:21.472Z,568.00
2023-03-11T21:03:21.489Z,564.00
2023-03-11T21:04:21.672Z,566.00
2023-03-11T21:05:21.442Z,565.00
2023-03-11T21:06:21.372Z,565.00
2023-03-11T21:08:21.391Z,568.00
2023-03-11T21:09:21.355Z,570.00
2023-03-11T21:10:21.313Z,572.00
2023-03-11T21:11:21.451Z,572.00
2023-03-11T21:12:21.388Z,574.00
2023-03-11T21:13:21.329Z,567.00
2023-03-11T21:14:21.390Z,570.00
2023-03-11T21:15:21.392Z,560.00
2023-03-11T21:16:21.340Z,568.00
2023-03-11T21:17:21.439Z,566.00
2023-03-11T21:18:21.250Z,565.00
2023-03-11T21:19:21.308Z,565.00
2023-03-11T21:20:21.237Z,567.00
2023-03-11T21:21:21.333Z,566.00
2023-03-11T21:22:21.258Z,565.00
2023-03-11T21:23:21.317Z,560.00
2023-03-11T21:24:21.312Z,558.00
2023-03-11T21:25:21.246Z,559.00
2023-03-11T21:26:21.176Z,558.00
2023-03-11T21:27:21.207Z,560.00
2023-03-11T21:28:21.159Z,562.00
2023-03-11T21:29:21.318Z,565.00
2023-03-11T21:30:21.236Z,559.00
2023-03-11T21:31:21.244Z,563.00
2023-03-11T21:32:21.274Z,558.00
2023-03-11T21:33:21.234Z,559.00
2023-03-11T21:34:21.143Z,555.00
2023-03-11T21:35:21.093Z,558.00
2023-03-11T21:36:21.144Z,556.00
2023-03-11T21:37:21.076Z,563.00
2023-03-11T21:38:21.183Z,556.00
2023-03-11T21:39:21.070Z,556.00
2023-03-11T21:40:21.063Z,557.00
2023-03-11T21:41:21.145Z,557.00
2023-03-11T21:42:21.150Z,560.00
2023-03-11T21:43:21.174Z,561.00
2023-03-11T21:44:21.152Z,566.00
2023-03-11T21:45:21.160Z,561.00
2023-03-11T21:46:21.180Z,568.00
2023-03-11T21:47:21.022Z,568.00
2023-03-11T21:48:21.030Z,566.00
2023-03-11T21:49:21.046Z,564.00
2023-03-11T21:50:21.118Z,562.00
2023-03-11T21:51:21.143Z,560.00
2023-03-11T21:52:21.056Z,558.00
2023-03-11T21:53:21.027Z,562.00
2023-03-11T21:54:21.043Z,555.00
2023-03-11T21:55:20.915Z,564.00
2023-03-11T21:56:21.025Z,559.00
2023-03-11T21:57:21.065Z,564.00
2023-03-11T21:58:21.007Z,567.00
2023-03-11T21:59:23.019Z,565.00
2023-03-11T22:00:21.020Z,566.00
2023-03-11T22:01:20.927Z,566.00
2023-03-11T22:02:21.060Z,564.00
2023-03-11T22:03:20.961Z,565.00
2023-03-11T22:04:21.030Z,563.00
2023-03-11T22:05:20.869Z,561.00
2023-03-11T22:06:20.943Z,564.00
2023-03-11T22:07:20.905Z,556.00
2023-03-11T22:08:20.827Z,555.00
2023-03-11T22:09:20.874Z,560.00
2023-03-11T22:10:20.783Z,558.00
2023-03-11T22:11:20.935Z,553.00
2023-03-11T22:12:20.828Z,552.00
2023-03-11T22:13:20.920Z,559.00
2023-03-11T22:14:20.869Z,549.00
2023-03-11T22:15:20.775Z,557.00
2023-03-11T22:16:20.998Z,551.00
2023-03-11T22:17:20.773Z,549.00
2023-03-11T22:18:42.758Z,552.00
2023-03-11T22:19:20.821Z,553.00
2023-03-11T22:20:20.689Z,558.00
2023-03-11T22:21:20.910Z,559.00
2023-03-11T22:22:20.666Z,566.00
2023-03-11T22:23:20.667Z,558.00
2023-03-11T22:24:20.650Z,556.00
2023-03-11T22:25:20.645Z,558.00
2023-03-11T22:26:20.684Z,555.00
2023-03-11T22:27:20.625Z,547.00
2023-03-11T22:28:20.613Z,554.00
2023-03-11T22:29:20.612Z,554.00
2023-03-11T22:30:20.595Z,560.00
2023-03-11T22:31:20.646Z,556.00
2023-03-11T22:32:20.634Z,551.00
2023-03-11T22:33:20.576Z,550.00
2023-03-11T22:34:20.577Z,549.00
2023-03-11T22:35:20.558Z,553.00
2023-03-11T22:36:20.544Z,553.00
2023-03-11T22:37:20.555Z,548.00
2023-03-11T22:38:20.528Z,546.00
2023-03-11T22:39:20.521Z,548.00
2023-03-11T22:40:20.525Z,547.00
2023-03-11T22:41:20.566Z,551.00
2023-03-11T22:42:20.498Z,545.00
2023-03-11T22:43:20.482Z,546.00
2023-03-11T22:44:20.474Z,548.00
2023-03-11T22:45:20.466Z,548.00
2023-03-11T22:46:20.581Z,551.00
2023-03-11T22:47:20.485Z,550.00
2023-03-11T22:48:20.444Z,555.00
2023-03-11T22:49:20.435Z,547.00
2023-03-11T22:50:20.436Z,544.00
2023-03-11T22:51:20.698Z,543.00
2023-03-11T22:52:20.410Z,542.00
2023-03-11T22:53:20.396Z,553.00
2023-03-11T22:54:20.410Z,550.00
2023-03-11T22:55:20.388Z,551.00
2023-03-11T22:56:20.370Z,548.00
2023-03-11T22:57:20.363Z,545.00
2023-03-11T22:58:20.352Z,548.00
2023-03-11T22:59:20.339Z,553.00
2023-03-11T23:00:20.330Z,552.00
2023-03-11T23:01:20.330Z,555.00
2023-03-11T23:02:20.314Z,554.00
2023-03-11T23:03:20.416Z,555.00
2023-03-11T23:04:20.365Z,551.00
2023-03-11T23:05:20.287Z,549.00
2023-03-11T23:06:20.281Z,543.00
2023-03-11T23:07:20.272Z,549.00
2023-03-11T23:08:20.259Z,548.00
2023-03-11T23:09:20.257Z,546.00
2023-03-11T23:10:21.617Z,549.00
2023-03-11T23:11:20.237Z,550.00
2023-03-11T23:12:20.221Z,546.00
2023-03-11T23:13:20.213Z,549.00
2023-03-11T23:14:23.710Z,548.00
2023-03-11T23:15:20.222Z,549.00
2023-03-11T23:16:20.314Z,550.00
2023-03-11T23:17:20.185Z,551.00
2023-03-11T23:18:20.178Z,537.00
2023-03-11T23:19:20.194Z,547.00
2023-03-11T23:20:20.156Z,549.00
2023-03-11T23:21:20.146Z,550.00
2023-03-11T23:22:20.135Z,550.00
2023-03-11T23:23:20.128Z,553.00
2023-03-11T23:24:20.118Z,551.00
2023-03-11T23:25:20.118Z,555.00
2023-03-11T23:26:20.120Z,557.00
2023-03-11T23:27:20.089Z,554.00
2023-03-11T23:28:20.080Z,549.00
2023-03-11T23:29:20.075Z,551.00
2023-03-11T23:30:20.062Z,544.00
2023-03-11T23:31:20.117Z,552.00
2023-03-11T23:32:20.104Z,547.00
2023-03-11T23:33:20.039Z,545.00
2023-03-11T23:34:20.043Z,548.00
2023-03-11T23:35:20.040Z,553.00
2023-03-11T23:36:20.018Z,547.00
2023-03-11T23:37:20.020Z,551.00
2023-03-11T23:38:19.994Z,553.00
2023-03-11T23:39:19.988Z,558.00
2023-03-11T23:40:19.977Z,560.00
2023-03-11T23:41:19.970Z,565.00
2023-03-11T23:42:25.904Z,562.00
2023-03-11T23:43:19.947Z,562.00
2023-03-11T23:44:19.936Z,563.00
2023-03-11T23:45:19.937Z,562.00
2023-03-11T23:46:19.985Z,562.00
2023-03-11T23:47:19.914Z,563.00
2023-03-11T23:48:19.910Z,561.00
2023-03-11T23:49:19.889Z,559.00
2023-03-11T23:50:19.885Z,559.00
2023-03-11T23:51:19.907Z,564.00
2023-03-11T23:52:19.897Z,566.00
2023-03-11T23:53:19.867Z,567.00
2023-03-11T23:54:19.848Z,565.00
2023-03-11T23:55:19.868Z,553.00
2023-03-11T23:56:19.842Z,557.00
2023-03-11T23:57:19.834Z,565.00
2023-03-11T23:58:19.815Z,558.00
2023-03-11T23:59:19.813Z,560.00
